Nashville (BNA/KBNA)

Information

Location
Nashville, TN
Local Time
03:14 / 3:14 am
GMT Time
08:14 / 8:14 am
No FAA reported delays
METAR KBNA 270753Z 20008KT 10SM BKN065 24/16 A2992 RMK AO2 SLP122 T02390161
TAF KBNA 270722Z 2707/2806 20007KT P6SM OVC070 FM271600 22008KT P6SM VCSH BKN025 BKN060 FM272100 23007KT 5SM -SHRA VCTS BKN025CB OVC050 FM272300 21005KT P6SM VCSH SCT025 BKN070